Time;durP1;ratioP1;P1;durP2;ratioP2;P2;SDS_P1;SDS_P2;PMS_P1;PMS_P2;Temp;Humidity;BMP_temperature;BMP_pressure;BME280_temperature;BME280_humidity;BME280_pressure;Samples;Min_cycle;Max_cycle;Signal;HPM_P1;HPM_P2
2022/12/28 00:01:27;;;;;;;;;;;5.40;99.90;;;;;;5031710;28;19940;-51
2022/12/28 00:03:53;;;;;;;;;;;5.40;99.90;;;;;;5009334;28;19921;-51
2022/12/28 00:06:20;;;;;;;;;;;5.40;99.90;;;;;;5026876;28;19932;-54
2022/12/28 00:08:46;;;;;;;;;;;5.40;99.90;;;;;;5007793;28;19921;-51
2022/12/28 00:11:12;;;;;;;;;;;5.40;99.90;;;;;;5010900;28;19929;-50
2022/12/28 00:13:38;;;;;;;;;;;5.40;99.90;;;;;;5027824;28;19925;-50
2022/12/28 00:16:08;;;;;;;;;;;5.40;99.90;;;;;;5028576;28;20397;-50
2022/12/28 00:18:34;;;;;;;;;;;5.40;99.90;;;;;;5028312;28;19921;-53
2022/12/28 00:21:00;;;;;;;;;;;5.40;99.90;;;;;;5033529;28;19946;-55
2022/12/28 00:23:26;;;;;;;;;;;5.40;99.90;;;;;;5023468;28;20295;-55
2022/12/28 00:25:52;;;;;;;;;;;5.40;99.90;;;;;;5023257;28;19977;-53
2022/12/28 00:28:18;;;;;;;;;;;5.40;99.90;;;;;;5028959;28;19983;-54
2022/12/28 00:30:43;;;;;;;;;;;5.30;99.90;;;;;;5026856;28;19943;-54
2022/12/28 00:33:09;;;;;;;;;;;5.40;99.90;;;;;;5019801;28;19959;-53
2022/12/28 00:35:34;;;;;;;;;;;5.40;99.90;;;;;;5018721;28;19921;-53
2022/12/28 00:38:00;;;;;;;;;;;5.40;99.90;;;;;;5018255;28;19928;-54
2022/12/28 00:40:25;;;;;;;;;;;5.40;99.90;;;;;;5020285;28;19944;-52
2022/12/28 00:42:51;;;;;;;;;;;5.40;99.90;;;;;;5020685;28;19929;-52
2022/12/28 00:45:16;;;;;;;;;;;5.40;99.90;;;;;;5022162;28;19990;-51
2022/12/28 00:47:42;;;;;;;;;;;5.40;99.90;;;;;;5021750;28;19984;-51
2022/12/28 00:50:08;;;;;;;;;;;5.40;99.90;;;;;;5028316;28;19921;-52
2022/12/28 00:52:33;;;;;;;;;;;5.40;99.90;;;;;;5019608;28;19929;-51
2022/12/28 00:54:59;;;;;;;;;;;5.40;99.90;;;;;;5024129;28;20378;-52
2022/12/28 00:57:24;;;;;;;;;;;5.40;99.90;;;;;;5031739;28;19925;-52
2022/12/28 00:59:50;;;;;;;;;;;5.40;99.90;;;;;;5034555;28;20379;-52
2022/12/28 01:02:15;;;;;;;;;;;5.40;99.90;;;;;;5028412;28;19921;-51
2022/12/28 01:04:41;;;;;;;;;;;5.40;99.90;;;;;;5012039;28;20399;-53
2022/12/28 01:07:06;;;;;;;;;;;5.40;99.90;;;;;;5030800;28;19936;-56
2022/12/28 01:09:32;;;;;;;;;;;5.40;99.90;;;;;;5026032;28;19921;-52
2022/12/28 01:11:57;;;;;;;;;;;5.40;99.90;;;;;;5011858;28;19921;-50
2022/12/28 01:14:23;;;;;;;;;;;5.40;99.90;;;;;;5030273;28;19921;-50
2022/12/28 01:16:48;;;;;;;;;;;5.50;99.90;;;;;;5027650;28;20050;-51
2022/12/28 01:19:16;;;;;;;;;;;5.50;99.90;;;;;;5031231;28;19920;-52
2022/12/28 01:21:42;;;;;;;;;;;5.40;99.90;;;;;;5033531;28;19925;-51
2022/12/28 01:24:08;;;;;;;;;;;5.50;99.90;;;;;;5022745;28;20299;-51
2022/12/28 01:26:34;;;;;;;;;;;5.50;99.90;;;;;;5019448;28;20402;-51
2022/12/28 01:29:00;;;;;;;;;;;5.50;99.90;;;;;;5016955;28;19929;-54
2022/12/28 01:31:25;;;;;;;;;;;5.50;99.90;;;;;;5018016;28;19928;-53
2022/12/28 01:33:51;;;;;;;;;;;5.50;99.90;;;;;;5017726;28;19928;-53
2022/12/28 01:36:18;;;;;;;;;;;5.50;99.90;;;;;;5000999;28;19932;-51
2022/12/28 01:38:44;;;;;;;;;;;5.50;99.90;;;;;;5017662;28;19925;-54
2022/12/28 01:41:14;;;;;;;;;;;5.50;99.90;;;;;;5017850;28;19925;-51
2022/12/28 01:43:42;;;;;;;;;;;5.50;99.90;;;;;;5018275;28;19921;-55
2022/12/28 01:46:28;;;;;;;;;;;5.60;99.90;;;;;;5022209;28;20016;-55
2022/12/28 01:48:56;;;;;;;;;;;5.50;99.90;;;;;;5015160;28;19928;-52
2022/12/28 01:51:23;;;;;;;;;;;5.50;99.90;;;;;;5022487;28;20431;-55
2022/12/28 01:53:50;;;;;;;;;;;5.60;99.90;;;;;;5021332;28;19932;-52
2022/12/28 01:56:15;;;;;;;;;;;5.60;99.90;;;;;;5001671;28;19929;-52
2022/12/28 01:58:41;;;;;;;;;;;5.60;99.90;;;;;;5000248;28;19924;-52
2022/12/28 02:01:07;;;;;;;;;;;5.60;99.90;;;;;;5023410;28;20298;-55
2022/12/28 02:03:33;;;;;;;;;;;5.60;99.90;;;;;;5018026;28;19936;-52
2022/12/28 02:06:00;;;;;;;;;;;5.60;99.90;;;;;;4983381;28;19951;-52
2022/12/28 02:08:29;;;;;;;;;;;5.70;99.90;;;;;;5000762;28;20019;-51
2022/12/28 02:10:54;;;;;;;;;;;5.70;99.90;;;;;;5018266;28;19924;-52
2022/12/28 02:13:21;;;;;;;;;;;5.70;99.90;;;;;;4985455;28;20429;-52
2022/12/28 02:15:48;;;;;;;;;;;5.70;99.90;;;;;;5018627;28;19925;-51
2022/12/28 02:18:14;;;;;;;;;;;5.70;99.90;;;;;;5023011;28;19924;-51
2022/12/28 02:20:44;;;;;;;;;;;5.70;99.90;;;;;;5030154;28;19968;-51
2022/12/28 02:23:18;;;;;;;;;;;5.80;99.90;;;;;;5005759;28;20402;-51
2022/12/28 02:25:59;;;;;;;;;;;5.80;99.90;;;;;;5026060;28;19956;-50
2022/12/28 02:28:56;;;;;;;;;;;5.80;99.90;;;;;;5028998;28;19928;-51
2022/12/28 02:31:26;;;;;;;;;;;5.80;99.90;;;;;;4986111;28;20446;-52
2022/12/28 02:34:07;;;;;;;;;;;5.80;99.90;;;;;;4982311;28;19921;-51
2022/12/28 02:36:37;;;;;;;;;;;5.90;99.90;;;;;;4985074;28;19922;-54
2022/12/28 02:39:09;;;;;;;;;;;5.90;99.90;;;;;;4978415;28;19922;-52
2022/12/28 02:41:37;;;;;;;;;;;5.90;99.90;;;;;;4977744;28;20352;-54
2022/12/28 02:44:02;;;;;;;;;;;5.90;99.90;;;;;;4986931;28;20016;-51
2022/12/28 02:52:20;;;;;;;;;;;6.00;99.90;;;;;;4940021;28;19922;-53
2022/12/28 02:57:33;;;;;;;;;;;6.00;99.90;;;;;;4978995;28;20673;-55
2022/12/28 03:00:06;;;;;;;;;;;6.00;99.90;;;;;;4976939;28;20446;-55
2022/12/28 03:02:34;;;;;;;;;;;6.00;99.90;;;;;;4975601;28;19922;-52
2022/12/28 03:05:10;;;;;;;;;;;6.00;99.90;;;;;;4975720;28;19957;-54
2022/12/28 03:10:45;;;;;;;;;;;6.00;99.90;;;;;;5002496;28;19929;-54
2022/12/28 03:16:03;;;;;;;;;;;6.10;99.90;;;;;;5017325;28;19928;-55
2022/12/28 03:32:21;;;;;;;;;;;6.20;99.90;;;;;;5004802;28;19921;-51
2022/12/28 03:34:47;;;;;;;;;;;6.20;99.90;;;;;;5002577;28;19932;-51
2022/12/28 03:37:24;;;;;;;;;;;6.20;99.90;;;;;;5004408;28;19925;-51
2022/12/28 03:39:51;;;;;;;;;;;6.30;99.90;;;;;;5002941;28;19921;-54
2022/12/28 03:45:13;;;;;;;;;;;6.30;99.90;;;;;;5007604;28;20012;-55
2022/12/28 03:47:40;;;;;;;;;;;6.30;99.90;;;;;;5006531;28;19922;-52
2022/12/28 03:50:05;;;;;;;;;;;6.30;99.90;;;;;;5003000;28;20018;-52
2022/12/28 03:52:31;;;;;;;;;;;6.30;99.90;;;;;;5005200;28;19988;-53
2022/12/28 03:54:57;;;;;;;;;;;6.40;99.90;;;;;;4991617;28;20363;-52
2022/12/28 03:57:22;;;;;;;;;;;6.30;99.90;;;;;;5008572;28;19931;-53
2022/12/28 03:59:48;;;;;;;;;;;6.40;99.90;;;;;;5029719;28;19925;-52
2022/12/28 04:02:13;;;;;;;;;;;6.30;99.90;;;;;;5023290;28;19928;-52
2022/12/28 04:04:39;;;;;;;;;;;6.40;99.90;;;;;;5027439;28;20159;-53
2022/12/28 04:07:05;;;;;;;;;;;6.30;99.90;;;;;;5023718;28;20291;-54
2022/12/28 04:09:31;;;;;;;;;;;6.30;99.90;;;;;;5023409;28;21424;-53
2022/12/28 04:11:57;;;;;;;;;;;6.30;99.90;;;;;;5005583;28;19931;-54
2022/12/28 04:14:22;;;;;;;;;;;6.40;99.90;;;;;;5024788;28;19921;-51
2022/12/28 04:16:48;;;;;;;;;;;6.40;99.90;;;;;;5028188;28;20330;-52
2022/12/28 04:19:13;;;;;;;;;;;6.30;99.90;;;;;;5030278;28;19921;-52
2022/12/28 04:21:39;;;;;;;;;;;6.40;99.90;;;;;;5030184;28;19921;-50
2022/12/28 04:24:04;;;;;;;;;;;6.40;99.90;;;;;;5029362;28;19925;-52
2022/12/28 04:26:30;;;;;;;;;;;6.40;99.90;;;;;;5024266;28;19936;-51
2022/12/28 04:29:00;;;;;;;;;;;6.40;99.90;;;;;;5007692;28;19947;-51
2022/12/28 04:31:26;;;;;;;;;;;6.40;99.90;;;;;;5024777;28;20264;-51
2022/12/28 04:33:52;;;;;;;;;;;6.40;99.90;;;;;;5024163;28;20602;-51
2022/12/28 04:36:17;;;;;;;;;;;6.40;99.90;;;;;;5024091;28;19921;-50
2022/12/28 04:38:43;;;;;;;;;;;6.50;99.90;;;;;;5023730;28;19925;-50
2022/12/28 04:41:09;;;;;;;;;;;6.50;99.90;;;;;;5005832;28;21558;-52
2022/12/28 04:43:35;;;;;;;;;;;6.40;99.90;;;;;;5024275;28;19979;-51
2022/12/28 04:46:01;;;;;;;;;;;6.50;99.90;;;;;;5028058;28;20387;-56
2022/12/28 04:48:27;;;;;;;;;;;6.50;99.90;;;;;;5024169;28;19921;-53
2022/12/28 04:50:53;;;;;;;;;;;6.50;99.90;;;;;;5026883;28;20295;-51
2022/12/28 04:53:19;;;;;;;;;;;6.50;99.90;;;;;;5023529;28;20024;-51
2022/12/28 04:55:44;;;;;;;;;;;6.60;99.90;;;;;;5024368;28;20408;-52
2022/12/28 04:58:10;;;;;;;;;;;6.50;99.90;;;;;;5005473;28;19920;-53
2022/12/28 05:00:36;;;;;;;;;;;6.60;99.90;;;;;;5024843;28;19947;-50
2022/12/28 05:03:01;;;;;;;;;;;6.60;99.90;;;;;;4985329;28;19921;-52
2022/12/28 05:05:27;;;;;;;;;;;6.60;99.90;;;;;;5022407;28;19933;-50
2022/12/28 05:07:52;;;;;;;;;;;6.60;99.90;;;;;;5018802;28;19978;-54
2022/12/28 05:10:18;;;;;;;;;;;6.60;99.90;;;;;;5023749;28;19971;-55
2022/12/28 05:12:44;;;;;;;;;;;6.60;99.90;;;;;;5017974;28;20318;-52
2022/12/28 05:15:09;;;;;;;;;;;6.70;99.90;;;;;;5022983;28;19929;-54
2022/12/28 05:17:35;;;;;;;;;;;6.70;99.90;;;;;;5023629;28;20294;-55
2022/12/28 05:20:01;;;;;;;;;;;6.70;99.90;;;;;;5018889;28;19970;-55
2022/12/28 05:22:26;;;;;;;;;;;6.70;99.90;;;;;;5017711;28;19921;-54
2022/12/28 05:24:52;;;;;;;;;;;6.80;99.90;;;;;;5019670;28;19971;-55
2022/12/28 05:27:17;;;;;;;;;;;6.80;99.90;;;;;;5023396;28;19921;-51
2022/12/28 05:29:43;;;;;;;;;;;6.80;99.90;;;;;;5028577;28;19936;-55
2022/12/28 05:32:09;;;;;;;;;;;;;;;;;;5016989;28;19936;-55
2022/12/28 05:34:34;;;;;;;;;;;6.90;99.90;;;;;;5018758;28;19925;-52
2022/12/28 05:37:00;;;;;;;;;;;6.90;99.90;;;;;;5018076;28;19921;-53
2022/12/28 05:39:25;;;;;;;;;;;6.90;99.90;;;;;;5025948;28;20956;-56
2022/12/28 05:41:51;;;;;;;;;;;6.90;99.90;;;;;;5017987;28;19935;-54
2022/12/28 05:44:16;;;;;;;;;;;7.00;99.90;;;;;;5018501;28;21153;-51
2022/12/28 05:46:42;;;;;;;;;;;7.00;99.90;;;;;;5018285;28;20448;-50
2022/12/28 05:49:08;;;;;;;;;;;7.00;99.90;;;;;;5023763;28;20303;-53
2022/12/28 05:51:33;;;;;;;;;;;7.00;99.90;;;;;;5023993;28;20453;-50
2022/12/28 05:54:00;;;;;;;;;;;7.00;99.90;;;;;;5022659;28;19921;-52
2022/12/28 05:56:26;;;;;;;;;;;7.10;99.90;;;;;;5023875;28;20359;-54
2022/12/28 05:58:53;;;;;;;;;;;7.10;99.90;;;;;;5023919;28;19932;-56
2022/12/28 06:01:20;;;;;;;;;;;7.10;99.90;;;;;;5022646;28;19955;-51
2022/12/28 06:03:46;;;;;;;;;;;;;;;;;;5016393;28;20444;-55
2022/12/28 06:06:16;;;;;;;;;;;7.10;99.90;;;;;;5022718;28;21545;-56
2022/12/28 06:08:42;;;;;;;;;;;7.20;99.90;;;;;;5022062;28;20012;-55
2022/12/28 06:11:09;;;;;;;;;;;7.20;99.90;;;;;;5020962;28;20004;-57
2022/12/28 06:13:35;;;;;;;;;;;7.20;99.90;;;;;;5017659;28;19952;-53
2022/12/28 06:16:19;;;;;;;;;;;7.20;99.90;;;;;;5018692;28;19929;-53
2022/12/28 06:18:45;;;;;;;;;;;7.20;99.90;;;;;;5022830;28;20371;-51
2022/12/28 06:21:14;;;;;;;;;;;7.30;99.90;;;;;;5027924;28;19929;-53
2022/12/28 06:23:40;;;;;;;;;;;7.30;99.90;;;;;;5025722;28;19921;-53
2022/12/28 06:26:06;;;;;;;;;;;7.30;99.90;;;;;;5018036;28;19928;-52
2022/12/28 06:28:32;;;;;;;;;;;7.30;99.90;;;;;;5025704;28;19936;-52
2022/12/28 06:31:01;;;;;;;;;;;7.30;99.90;;;;;;5028571;28;20390;-52
2022/12/28 06:33:26;;;;;;;;;;;7.40;99.90;;;;;;5026754;28;19925;-54
2022/12/28 06:35:52;;;;;;;;;;;7.40;99.90;;;;;;5024872;28;19921;-53
2022/12/28 06:38:18;;;;;;;;;;;7.40;99.90;;;;;;5024817;28;19925;-52
2022/12/28 06:40:43;;;;;;;;;;;7.30;99.90;;;;;;5026430;28;19929;-55
2022/12/28 06:43:08;;;;;;;;;;;7.40;99.90;;;;;;5030038;28;19921;-54
2022/12/28 06:45:34;;;;;;;;;;;7.40;99.90;;;;;;5028452;28;20012;-52
2022/12/28 06:48:00;;;;;;;;;;;;;;;;;;5018646;28;20574;-50
2022/12/28 06:50:25;;;;;;;;;;;7.40;99.90;;;;;;5016868;28;20405;-51
2022/12/28 06:52:51;;;;;;;;;;;7.40;99.90;;;;;;5019255;28;20375;-51
2022/12/28 06:55:16;;;;;;;;;;;7.50;99.90;;;;;;5030313;28;19925;-51
2022/12/28 06:57:42;;;;;;;;;;;7.50;99.90;;;;;;5034882;28;20000;-52
2022/12/28 07:00:08;;;;;;;;;;;7.50;99.90;;;;;;5036536;28;19968;-55
2022/12/28 07:02:34;;;;;;;;;;;7.60;99.90;;;;;;5036349;28;19920;-54
2022/12/28 07:04:59;;;;;;;;;;;7.60;99.90;;;;;;5037027;28;19921;-53
2022/12/28 07:07:25;;;;;;;;;;;7.60;99.90;;;;;;5036598;28;19925;-52
2022/12/28 07:09:50;;;;;;;;;;;7.60;99.90;;;;;;5031445;28;19937;-55
2022/12/28 07:12:16;;;;;;;;;;;7.60;99.90;;;;;;5020872;28;19929;-55
2022/12/28 07:14:41;;;;;;;;;;;7.60;99.90;;;;;;5022279;28;20383;-56
2022/12/28 07:17:07;;;;;;;;;;;7.60;99.90;;;;;;5020949;28;19928;-57
2022/12/28 07:19:32;;;;;;;;;;;7.70;99.90;;;;;;5021402;28;19936;-55
2022/12/28 07:21:58;;;;;;;;;;;7.70;99.90;;;;;;5021932;28;20008;-54
2022/12/28 07:24:23;;;;;;;;;;;7.70;99.90;;;;;;5020420;28;19940;-55
2022/12/28 07:26:49;;;;;;;;;;;7.70;99.90;;;;;;5025515;28;19928;-54
2022/12/28 07:29:14;;;;;;;;;;;7.70;99.90;;;;;;5018148;28;19929;-55
2022/12/28 07:31:40;;;;;;;;;;;7.70;99.90;;;;;;5020693;28;19921;-54
2022/12/28 07:34:05;;;;;;;;;;;7.80;99.90;;;;;;5020418;28;19939;-54
2022/12/28 07:36:32;;;;;;;;;;;7.70;99.90;;;;;;5020521;28;19921;-55
2022/12/28 07:38:58;;;;;;;;;;;7.70;99.90;;;;;;5030585;28;19990;-56
2022/12/28 07:41:23;;;;;;;;;;;;;;;;;;5023028;28;19925;-52
2022/12/28 07:43:49;;;;;;;;;;;7.80;99.90;;;;;;5021597;28;20397;-53
2022/12/28 07:46:16;;;;;;;;;;;7.80;99.90;;;;;;5019682;28;19921;-54
2022/12/28 07:48:42;;;;;;;;;;;7.80;99.90;;;;;;5019860;28;20044;-55
2022/12/28 07:51:13;;;;;;;;;;;7.90;99.90;;;;;;5020584;28;19924;-53
2022/12/28 07:53:39;;;;;;;;;;;7.90;99.90;;;;;;5026296;28;20375;-56
2022/12/28 07:56:05;;;;;;;;;;;7.90;99.90;;;;;;5025011;28;19928;-54
2022/12/28 07:58:31;;;;;;;;;;;7.90;99.90;;;;;;5022829;28;19921;-53
2022/12/28 08:01:04;;;;;;;;;;;7.90;99.90;;;;;;5017163;28;20446;-56
2022/12/28 08:03:29;;;;;;;;;;;7.90;99.90;;;;;;5024216;28;20744;-51
2022/12/28 08:06:00;;;;;;;;;;;7.90;99.90;;;;;;5018322;28;20028;-52
2022/12/28 08:08:26;;;;;;;;;;;7.90;99.90;;;;;;5018060;28;20100;-51
2022/12/28 08:10:51;;;;;;;;;;;8.00;99.90;;;;;;5015526;28;19928;-50
2022/12/28 08:13:18;;;;;;;;;;;8.00;99.90;;;;;;4995658;28;19929;-55
2022/12/28 08:15:52;;;;;;;;;;;8.00;99.90;;;;;;5012315;28;20506;-55
2022/12/28 08:18:17;;;;;;;;;;;8.00;99.90;;;;;;5002547;28;20371;-51
2022/12/28 08:20:43;;;;;;;;;;;8.00;99.90;;;;;;5023164;28;19928;-54
2022/12/28 08:23:09;;;;;;;;;;;;;;;;;;5022124;28;19933;-52
2022/12/28 08:25:34;;;;;;;;;;;8.10;99.90;;;;;;5017094;28;19927;-56
2022/12/28 08:28:00;;;;;;;;;;;8.00;99.90;;;;;;5017976;28;20060;-54
2022/12/28 08:30:25;;;;;;;;;;;8.10;99.90;;;;;;5019290;28;19968;-54
2022/12/28 08:32:51;;;;;;;;;;;8.00;99.90;;;;;;5002247;28;19921;-54
2022/12/28 08:35:16;;;;;;;;;;;8.10;99.90;;;;;;5018754;28;19968;-55
2022/12/28 08:37:42;;;;;;;;;;;8.10;99.90;;;;;;5018610;28;20445;-51
2022/12/28 08:40:08;;;;;;;;;;;8.10;99.90;;;;;;5017752;28;19929;-53
2022/12/28 08:42:33;;;;;;;;;;;8.20;99.90;;;;;;5022703;28;20292;-53
2022/12/28 08:44:59;;;;;;;;;;;8.10;99.90;;;;;;5021456;28;20323;-52
2022/12/28 08:47:24;;;;;;;;;;;8.20;99.90;;;;;;5019665;28;19966;-54
2022/12/28 08:49:50;;;;;;;;;;;8.20;99.90;;;;;;5020662;28;19925;-54
2022/12/28 08:52:15;;;;;;;;;;;8.20;99.90;;;;;;5021627;28;19921;-53
2022/12/28 08:54:41;;;;;;;;;;;8.20;99.90;;;;;;5019015;28;20275;-54
2022/12/28 08:57:06;;;;;;;;;;;8.30;99.90;;;;;;5019425;28;19986;-55
2022/12/28 08:59:32;;;;;;;;;;;8.30;99.90;;;;;;5019335;28;19920;-54
2022/12/28 09:01:57;;;;;;;;;;;8.30;99.90;;;;;;5020632;28;20279;-56
2022/12/28 09:04:23;;;;;;;;;;;8.30;99.90;;;;;;5020929;28;19929;-54
2022/12/28 09:06:49;;;;;;;;;;;8.30;99.90;;;;;;5025282;28;19936;-53
2022/12/28 09:09:16;;;;;;;;;;;8.40;99.90;;;;;;5004641;28;21338;-54
2022/12/28 09:11:42;;;;;;;;;;;;;;;;;;5006361;28;20291;-51
2022/12/28 09:14:08;;;;;;;;;;;8.40;99.90;;;;;;5018758;28;19940;-54
2022/12/28 09:16:34;;;;;;;;;;;8.40;99.90;;;;;;5002166;28;20379;-51
2022/12/28 09:19:01;;;;;;;;;;;8.40;99.90;;;;;;5021310;28;19922;-51
2022/12/28 09:21:28;;;;;;;;;;;8.40;99.90;;;;;;5020231;28;19943;-55
2022/12/28 09:23:53;;;;;;;;;;;8.40;99.90;;;;;;5020281;28;21071;-56
2022/12/28 09:26:20;;;;;;;;;;;8.40;99.90;;;;;;5018782;28;20466;-56
2022/12/28 09:28:47;;;;;;;;;;;8.40;99.90;;;;;;5018633;28;19933;-57
2022/12/28 09:31:12;;;;;;;;;;;8.40;99.90;;;;;;5016807;28;19953;-56
2022/12/28 09:36:22;;;;;;;;;;;8.50;99.90;;;;;;5020380;28;20012;-56
2022/12/28 09:38:48;;;;;;;;;;;8.50;99.90;;;;;;5018175;28;20370;-52
2022/12/28 09:41:29;;;;;;;;;;;8.50;99.90;;;;;;5013964;28;20016;-53
2022/12/28 09:44:16;;;;;;;;;;;8.60;99.90;;;;;;5028249;28;19937;-53
2022/12/28 09:46:43;;;;;;;;;;;8.60;99.90;;;;;;5017511;28;19929;-55
2022/12/28 09:49:13;;;;;;;;;;;8.60;99.90;;;;;;5021897;28;19936;-54
2022/12/28 09:51:42;;;;;;;;;;;8.60;99.90;;;;;;4989078;28;20016;-54
2022/12/28 09:54:07;;;;;;;;;;;8.60;99.90;;;;;;5023116;28;20475;-52
2022/12/28 09:56:38;;;;;;;;;;;8.60;99.90;;;;;;5021646;28;20035;-54
2022/12/28 09:59:06;;;;;;;;;;;8.60;99.90;;;;;;5020877;28;20332;-53
2022/12/28 10:01:34;;;;;;;;;;;8.60;99.90;;;;;;5003230;28;19929;-51
2022/12/28 10:04:00;;;;;;;;;;;8.70;99.90;;;;;;5020399;28;19943;-51
2022/12/28 10:06:27;;;;;;;;;;;8.70;99.90;;;;;;5017175;28;19925;-52
2022/12/28 10:08:55;;;;;;;;;;;8.70;99.90;;;;;;4985676;28;19921;-55
2022/12/28 10:11:26;;;;;;;;;;;8.70;99.90;;;;;;5019351;28;20382;-52
2022/12/28 10:13:56;;;;;;;;;;;8.70;99.90;;;;;;5019083;28;20392;-53
2022/12/28 10:16:22;;;;;;;;;;;8.70;99.90;;;;;;5020320;28;20354;-52
2022/12/28 10:18:48;;;;;;;;;;;8.70;99.90;;;;;;5018924;28;19928;-51
2022/12/28 10:21:14;;;;;;;;;;;8.80;99.90;;;;;;5003029;28;20505;-53
2022/12/28 10:23:42;;;;;;;;;;;8.70;99.90;;;;;;5021408;28;20296;-54
2022/12/28 10:26:11;;;;;;;;;;;8.80;99.90;;;;;;5021205;28;19925;-51
2022/12/28 10:28:48;;;;;;;;;;;8.80;99.90;;;;;;5019761;28;19929;-54
2022/12/28 10:31:15;;;;;;;;;;;8.80;99.90;;;;;;5019349;28;20371;-53
2022/12/28 10:33:48;;;;;;;;;;;8.90;99.90;;;;;;4987615;28;19929;-55
2022/12/28 10:36:14;;;;;;;;;;;8.90;99.90;;;;;;5020126;28;19921;-52
2022/12/28 10:38:47;;;;;;;;;;;8.90;99.90;;;;;;5019277;28;20108;-55
2022/12/28 10:41:14;;;;;;;;;;;8.90;99.90;;;;;;5024363;28;19947;-52
2022/12/28 10:43:41;;;;;;;;;;;8.90;99.90;;;;;;5022999;28;20364;-52
2022/12/28 10:46:14;;;;;;;;;;;8.90;99.90;;;;;;5023489;28;19955;-54
2022/12/28 10:48:44;;;;;;;;;;;8.90;99.90;;;;;;5024432;28;19997;-55
2022/12/28 10:51:14;;;;;;;;;;;8.80;99.90;;;;;;5023647;28;19924;-52
2022/12/28 10:53:46;;;;;;;;;;;8.90;99.90;;;;;;5023983;28;20360;-56
2022/12/28 10:56:11;;;;;;;;;;;8.90;99.90;;;;;;5029489;28;19928;-52
2022/12/28 10:58:37;;;;;;;;;;;8.90;99.90;;;;;;5008946;28;19929;-53
2022/12/28 11:01:14;;;;;;;;;;;8.90;99.90;;;;;;5006338;28;19928;-52
2022/12/28 11:03:43;;;;;;;;;;;8.90;99.90;;;;;;5024343;28;20001;-54
2022/12/28 11:06:08;;;;;;;;;;;8.90;99.90;;;;;;5024924;28;20004;-54
2022/12/28 11:08:35;;;;;;;;;;;8.90;99.90;;;;;;5026672;28;20016;-54
2022/12/28 11:11:00;;;;;;;;;;;8.90;99.90;;;;;;5026014;28;19921;-53
2022/12/28 11:13:26;;;;;;;;;;;8.90;99.90;;;;;;5024016;28;20299;-52
2022/12/28 11:15:51;;;;;;;;;;;8.90;99.90;;;;;;5018317;28;19925;-53
2022/12/28 11:18:18;;;;;;;;;;;9.00;99.90;;;;;;5021120;28;19994;-55
2022/12/28 11:20:45;;;;;;;;;;;9.00;99.90;;;;;;5019914;28;19928;-54
2022/12/28 11:23:16;;;;;;;;;;;9.00;99.90;;;;;;5019754;28;19921;-54
2022/12/28 11:25:42;;;;;;;;;;;9.00;99.90;;;;;;5021329;28;20433;-52
2022/12/28 11:28:25;;;;;;;;;;;8.90;99.90;;;;;;5019438;28;19929;-51
2022/12/28 11:30:51;;;;;;;;;;;9.10;99.90;;;;;;5020890;28;19930;-52
2022/12/28 11:33:22;;;;;;;;;;;9.10;99.90;;;;;;5022299;28;19979;-51
2022/12/28 11:35:50;;;;;;;;;;;9.10;99.90;;;;;;5021350;28;19932;-52
2022/12/28 11:38:34;;;;;;;;;;;9.10;99.90;;;;;;5020637;28;20075;-56
2022/12/28 11:41:00;;;;;;;;;;;9.10;99.90;;;;;;5020017;28;19921;-55
2022/12/28 11:43:29;;;;;;;;;;;9.10;99.90;;;;;;5020460;28;19979;-55
2022/12/28 11:45:58;;;;;;;;;;;9.10;99.90;;;;;;5016535;28;20596;-52
2022/12/28 11:48:42;;;;;;;;;;;9.10;99.90;;;;;;5019855;28;19929;-53
2022/12/28 11:51:24;;;;;;;;;;;9.10;99.90;;;;;;5019342;28;19963;-57
2022/12/28 11:53:51;;;;;;;;;;;9.10;99.90;;;;;;5019357;28;19928;-52
2022/12/28 11:56:17;;;;;;;;;;;9.20;99.90;;;;;;5020424;28;19939;-56
2022/12/28 11:58:45;;;;;;;;;;;9.10;99.90;;;;;;5020052;28;20191;-53
2022/12/28 12:01:25;;;;;;;;;;;9.10;99.90;;;;;;5016216;28;19921;-54
2022/12/28 12:03:57;;;;;;;;;;;9.10;99.90;;;;;;5019214;28;19921;-54
2022/12/28 12:06:44;;;;;;;;;;;9.10;99.90;;;;;;5019778;28;20707;-56
2022/12/28 12:09:27;;;;;;;;;;;9.00;99.90;;;;;;5025313;28;19933;-56
2022/12/28 12:11:54;;;;;;;;;;;9.00;99.90;;;;;;5019127;28;19929;-54
2022/12/28 12:14:36;;;;;;;;;;;9.00;99.90;;;;;;5001725;28;20299;-55
2022/12/28 12:17:04;;;;;;;;;;;9.00;99.90;;;;;;5022483;28;19929;-57
2022/12/28 12:19:31;;;;;;;;;;;9.00;99.90;;;;;;5018349;28;19921;-53
2022/12/28 12:22:00;;;;;;;;;;;9.00;99.90;;;;;;5018582;28;20008;-55
2022/12/28 12:24:31;;;;;;;;;;;9.00;99.90;;;;;;5017673;28;19921;-54
2022/12/28 12:26:57;;;;;;;;;;;9.00;99.90;;;;;;5019383;28;19929;-54
2022/12/28 12:29:58;;;;;;;;;;;8.90;99.90;;;;;;5019460;28;19921;-57
2022/12/28 12:32:44;;;;;;;;;;;9.00;99.90;;;;;;4942371;28;19942;-55
2022/12/28 12:35:12;;;;;;;;;;;9.00;99.90;;;;;;4941178;28;20368;-53
2022/12/28 12:37:44;;;;;;;;;;;9.00;99.90;;;;;;4944035;28;19930;-51
2022/12/28 12:40:28;;;;;;;;;;;9.00;99.90;;;;;;4943824;28;19937;-54
2022/12/28 12:43:07;;;;;;;;;;;9.00;99.90;;;;;;4924491;28;19981;-56
2022/12/28 12:45:41;;;;;;;;;;;9.00;99.90;;;;;;4928578;28;20488;-51
2022/12/28 12:48:15;;;;;;;;;;;9.00;99.90;;;;;;4943886;28;19930;-51
2022/12/28 12:50:53;;;;;;;;;;;9.00;99.90;;;;;;4943978;28;19958;-56
2022/12/28 12:53:25;;;;;;;;;;;9.00;99.90;;;;;;4940265;28;20376;-55
2022/12/28 12:55:59;;;;;;;;;;;9.00;99.90;;;;;;4942970;28;19922;-54
2022/12/28 12:58:33;;;;;;;;;;;9.00;99.90;;;;;;4942506;28;19930;-56
2022/12/28 13:01:16;;;;;;;;;;;9.00;99.90;;;;;;4943284;28;20444;-56
2022/12/28 13:03:44;;;;;;;;;;;9.00;99.90;;;;;;4941187;28;20424;-54
2022/12/28 13:06:12;;;;;;;;;;;9.00;99.90;;;;;;4967296;28;20387;-57
2022/12/28 13:08:38;;;;;;;;;;;9.00;99.90;;;;;;5016291;28;19925;-52
2022/12/28 13:11:06;;;;;;;;;;;9.00;99.90;;;;;;5018728;28;20302;-55
2022/12/28 13:13:34;;;;;;;;;;;9.10;99.90;;;;;;5017122;28;19979;-51
2022/12/28 13:16:01;;;;;;;;;;;9.10;99.90;;;;;;5018021;28;19929;-52
2022/12/28 13:18:27;;;;;;;;;;;9.10;99.90;;;;;;5016866;28;20583;-56
2022/12/28 13:20:54;;;;;;;;;;;9.00;99.90;;;;;;5018249;28;19924;-53
2022/12/28 13:23:21;;;;;;;;;;;9.10;99.90;;;;;;5019229;28;20457;-52
2022/12/28 13:25:48;;;;;;;;;;;9.00;99.90;;;;;;5017882;28;20505;-54
2022/12/28 13:28:22;;;;;;;;;;;9.00;99.90;;;;;;5017065;28;19956;-55
2022/12/28 13:30:58;;;;;;;;;;;9.00;99.90;;;;;;5017048;28;20326;-54
2022/12/28 13:33:24;;;;;;;;;;;9.00;99.90;;;;;;5017555;28;19935;-52
2022/12/28 13:35:49;;;;;;;;;;;9.00;99.90;;;;;;5017649;28;19928;-51
2022/12/28 13:38:15;;;;;;;;;;;9.00;99.90;;;;;;5016294;28;19956;-56
2022/12/28 13:40:48;;;;;;;;;;;9.00;99.90;;;;;;5016194;28;20017;-53
2022/12/28 13:43:17;;;;;;;;;;;9.00;99.90;;;;;;5018443;28;19921;-53
2022/12/28 13:45:43;;;;;;;;;;;9.00;99.90;;;;;;5017699;28;19921;-51
2022/12/28 13:48:08;;;;;;;;;;;9.10;99.90;;;;;;5015474;28;19964;-55
2022/12/28 13:50:36;;;;;;;;;;;9.10;99.90;;;;;;5017546;28;19972;-53
2022/12/28 13:53:03;;;;;;;;;;;9.00;99.90;;;;;;5015960;28;20012;-50
2022/12/28 13:55:38;;;;;;;;;;;9.00;99.90;;;;;;5017640;28;19987;-54
2022/12/28 13:58:36;;;;;;;;;;;9.00;99.90;;;;;;5017633;28;20391;-54
2022/12/28 14:01:05;;;;;;;;;;;9.00;99.90;;;;;;4982698;28;19929;-55
2022/12/28 14:03:32;;;;;;;;;;;9.00;99.90;;;;;;5015047;28;19929;-53
2022/12/28 14:05:58;;;;;;;;;;;9.00;99.90;;;;;;4998497;28;19972;-53
2022/12/28 14:08:25;;;;;;;;;;;9.00;99.90;;;;;;5016336;28;19939;-54
2022/12/28 14:10:50;;;;;;;;;;;8.90;99.90;;;;;;5016659;28;19975;-53
2022/12/28 14:13:17;;;;;;;;;;;8.90;99.90;;;;;;5016540;28;19925;-55
2022/12/28 14:15:43;;;;;;;;;;;8.90;99.90;;;;;;5014776;28;19928;-54
2022/12/28 14:18:12;;;;;;;;;;;8.90;99.90;;;;;;5000459;28;19929;-54
2022/12/28 14:20:47;;;;;;;;;;;8.90;99.90;;;;;;5017365;28;19976;-52
2022/12/28 14:23:19;;;;;;;;;;;8.90;99.90;;;;;;5016004;28;19921;-51
2022/12/28 14:25:44;;;;;;;;;;;8.90;99.90;;;;;;5016943;28;20470;-51
2022/12/28 14:28:30;;;;;;;;;;;8.90;99.90;;;;;;5013670;28;19936;-53
2022/12/28 14:30:56;;;;;;;;;;;8.80;99.90;;;;;;5012058;28;19929;-56
2022/12/28 14:33:23;;;;;;;;;;;8.80;99.90;;;;;;5015284;28;19921;-53
2022/12/28 14:35:51;;;;;;;;;;;8.80;99.90;;;;;;4998870;28;19944;-56
2022/12/28 14:38:21;;;;;;;;;;;8.90;99.90;;;;;;5016434;28;19921;-54
2022/12/28 14:40:54;;;;;;;;;;;8.90;99.90;;;;;;5017937;28;19956;-54
2022/12/28 14:43:24;;;;;;;;;;;8.80;99.90;;;;;;5017525;28;19968;-52
2022/12/28 14:45:50;;;;;;;;;;;8.90;99.90;;;;;;5017858;28;19964;-57
2022/12/28 14:48:35;;;;;;;;;;;8.80;99.90;;;;;;4997325;28;19956;-56
2022/12/28 14:51:03;;;;;;;;;;;8.80;99.90;;;;;;5018745;28;19976;-53
2022/12/28 14:53:29;;;;;;;;;;;8.80;99.90;;;;;;5001060;28;21311;-56
2022/12/28 14:55:57;;;;;;;;;;;8.80;99.90;;;;;;4996243;28;19928;-53
2022/12/28 14:58:25;;;;;;;;;;;8.80;99.90;;;;;;4986129;28;20264;-57
2022/12/28 15:01:08;;;;;;;;;;;8.80;99.90;;;;;;5018317;28;20002;-57
2022/12/28 15:04:00;;;;;;;;;;;8.80;99.90;;;;;;5001527;28;19929;-57
2022/12/28 15:06:27;;;;;;;;;;;8.90;99.90;;;;;;5014259;28;19937;-55
2022/12/28 15:08:53;;;;;;;;;;;8.80;99.90;;;;;;5015829;28;19921;-53
2022/12/28 15:11:20;;;;;;;;;;;8.80;99.90;;;;;;5017445;28;21041;-57